Terminal Aerodrome Forecast
Issued by NWS

Home | Current Version | Previous Version | Text Only | Print | Product List | Glossary On
Versions: 1 2 3 4 5 6 7 8 9 10 11 12 13 14 15 16 17 18 19 20 21 22 23 24 25 26 27 28
000
FTUS41 KOKX 120240 AAA
TAFTEB
TAF AMD
KTEB 120240Z 1203/1306 17004KT P6SM SCT040 BKN090
     FM120800 16005KT P6SM VCSH FEW025 BKN040
     FM121300 19008KT 6SM -RA BKN020
     FM122000 24009KT P6SM SCT020 OVC060
     FM122300 27015G25KT P6SM -SHSN BKN050=

USA.gov is the U.S. government's official web portal to all federal, state and local government web resources and services.